EGDM

MoD Boscombe Down Airport

Amesbury, United Kingdom
METAR EGDM 160450Z AUTO 21005KT 9999 NCD 05/03 Q1005
Observed Flight Rules
Dec-16 @ 04:50 UTC (an hour ago) Visual Flight Rules
Wind Visibility Clouds
210° at 5 knots 10,000+ meters
  • Clear skies
Temperatures Readings
Current 5°C / 41°F
Dewpoint 3°C / 37°F
Humidity 87%
Altimeter 29.68" Hg
Pressure 1005 hPa
Elevation 124
METAR EGDM 160450Z AUTO 21005KT 9999 NCD 05/03 Q1005
Observed Flight Rules
Dec-16 @ 04:50 UTC
(an hour ago)
VFR
Wind Visibility
210° at 5 knots 10,000+ meters
Clouds
  • Clear skies
Temperature Dewpoint
5°C / 41°F 3°C / 37°F
Humidity Altimeter Pressure
87% 29.68" Hg 1005 hPa